sensor_id;sensor_type;location;lat;lon;timestamp;pressure;altitude;pressure_sealevel;temperature;humidity
62948;BME280;51940;52.126;-0.994;2023-02-23T00:01:27;100521.70;;;4.45;100.00
62948;BME280;51940;52.126;-0.994;2023-02-23T00:03:57;100523.29;;;4.44;100.00
62948;BME280;51940;52.126;-0.994;2023-02-23T00:06:25;100526.09;;;4.43;100.00
62948;BME280;51940;52.126;-0.994;2023-02-23T00:08:51;100524.33;;;4.42;100.00
62948;BME280;51940;52.126;-0.994;2023-02-23T00:11:18;100527.51;;;4.41;100.00
62948;BME280;51940;52.126;-0.994;2023-02-23T00:13:46;100529.27;;;4.40;100.00
62948;BME280;51940;52.126;-0.994;2023-02-23T00:16:19;100531.56;;;4.40;100.00
62948;BME280;51940;52.126;-0.994;2023-02-23T00:18:53;100529.97;;;4.42;100.00
62948;BME280;51940;52.126;-0.994;2023-02-23T00:21:21;100533.67;;;4.42;100.00
62948;BME280;51940;52.126;-0.994;2023-02-23T00:23:50;100536.15;;;4.42;100.00
62948;BME280;51940;52.126;-0.994;2023-02-23T00:26:18;100534.39;;;4.43;100.00
62948;BME280;51940;52.126;-0.994;2023-02-23T00:28:46;100537.05;;;4.44;100.00
62948;BME280;51940;52.126;-0.994;2023-02-23T00:31:12;100539.71;;;4.44;100.00
62948;BME280;51940;52.126;-0.994;2023-02-23T00:33:38;100539.01;;;4.45;100.00
62948;BME280;51940;52.126;-0.994;2023-02-23T00:36:08;100539.36;;;4.46;100.00
62948;BME280;51940;52.126;-0.994;2023-02-23T00:38:36;100542.19;;;4.46;100.00
62948;BME280;51940;52.126;-0.994;2023-02-23T00:41:10;100544.84;;;4.46;100.00
62948;BME280;51940;52.126;-0.994;2023-02-23T00:43:38;100543.25;;;4.47;100.00
62948;BME280;51940;52.126;-0.994;2023-02-23T00:46:18;100547.30;;;4.47;100.00
62948;BME280;51940;52.126;-0.994;2023-02-23T00:48:46;100545.55;;;4.48;100.00
62948;BME280;51940;52.126;-0.994;2023-02-23T00:51:13;100547.13;;;4.47;100.00
62948;BME280;51940;52.126;-0.994;2023-02-23T00:53:38;100541.84;;;4.48;100.00
62948;BME280;51940;52.126;-0.994;2023-02-23T00:56:06;100542.36;;;4.48;100.00
62948;BME280;51940;52.126;-0.994;2023-02-23T00:58:31;100544.30;;;4.47;100.00
62948;BME280;51940;52.126;-0.994;2023-02-23T01:00:57;100544.66;;;4.47;100.00
62948;BME280;51940;52.126;-0.994;2023-02-23T01:03:29;100546.42;;;4.46;100.00
62948;BME280;51940;52.126;-0.994;2023-02-23T01:05:59;100548.55;;;4.46;100.00
62948;BME280;51940;52.126;-0.994;2023-02-23T01:08:25;100547.13;;;4.46;100.00
62948;BME280;51940;52.126;-0.994;2023-02-23T01:10:52;100549.08;;;4.46;100.00
62948;BME280;51940;52.126;-0.994;2023-02-23T01:13:19;100546.61;;;4.45;100.00
62948;BME280;51940;52.126;-0.994;2023-02-23T01:15:46;100549.95;;;4.44;100.00
62948;BME280;51940;52.126;-0.994;2023-02-23T01:18:15;100551.89;;;4.44;100.00
62948;BME280;51940;52.126;-0.994;2023-02-23T01:20:41;100555.95;;;4.44;100.00
62948;BME280;51940;52.126;-0.994;2023-02-23T01:23:08;100552.59;;;4.44;100.00
62948;BME280;51940;52.126;-0.994;2023-02-23T01:25:35;100554.55;;;4.44;100.00
62948;BME280;51940;52.126;-0.994;2023-02-23T01:28:00;100555.77;;;4.44;100.00
62948;BME280;51940;52.126;-0.994;2023-02-23T01:30:26;100557.54;;;4.44;100.00
62948;BME280;51940;52.126;-0.994;2023-02-23T01:32:52;100563.91;;;4.45;100.00
62948;BME280;51940;52.126;-0.994;2023-02-23T01:35:17;100567.27;;;4.45;100.00
62948;BME280;51940;52.126;-0.994;2023-02-23T01:37:43;100563.38;;;4.45;100.00
62948;BME280;51940;52.126;-0.994;2023-02-23T01:40:15;100561.96;;;4.45;100.00
62948;BME280;51940;52.126;-0.994;2023-02-23T01:42:44;100563.04;;;4.45;100.00
62948;BME280;51940;52.126;-0.994;2023-02-23T01:45:24;100560.38;;;4.45;100.00
62948;BME280;51940;52.126;-0.994;2023-02-23T01:47:52;100566.20;;;4.45;100.00
62948;BME280;51940;52.126;-0.994;2023-02-23T01:50:20;100561.62;;;4.45;100.00
62948;BME280;51940;52.126;-0.994;2023-02-23T01:52:49;100564.80;;;4.46;100.00
62948;BME280;51940;52.126;-0.994;2023-02-23T01:55:16;100568.15;;;4.46;100.00
62948;BME280;51940;52.126;-0.994;2023-02-23T01:57:50;100565.67;;;4.46;100.00
62948;BME280;51940;52.126;-0.994;2023-02-23T02:00:18;100567.27;;;4.46;100.00
62948;BME280;51940;52.126;-0.994;2023-02-23T02:02:45;100567.27;;;4.47;100.00
62948;BME280;51940;52.126;-0.994;2023-02-23T02:05:14;100573.62;;;4.47;100.00
62948;BME280;51940;52.126;-0.994;2023-02-23T02:07:46;100572.39;;;4.47;100.00
62948;BME280;51940;52.126;-0.994;2023-02-23T02:10:13;100569.39;;;4.48;100.00
62948;BME280;51940;52.126;-0.994;2023-02-23T02:12:41;100571.50;;;4.48;100.00
62948;BME280;51940;52.126;-0.994;2023-02-23T02:15:09;100568.85;;;4.48;100.00
62948;BME280;51940;52.126;-0.994;2023-02-23T02:21:09;100572.39;;;4.49;100.00
62948;BME280;51940;52.126;-0.994;2023-02-23T02:29:44;100578.21;;;4.52;100.00
62948;BME280;51940;52.126;-0.994;2023-02-23T02:32:47;100576.81;;;4.52;100.00
62948;BME280;51940;52.126;-0.994;2023-02-23T02:38:15;100579.65;;;4.53;100.00
62948;BME280;51940;52.126;-0.994;2023-02-23T02:43:51;100572.41;;;4.55;100.00
62948;BME280;51940;52.126;-0.994;2023-02-23T02:46:29;100574.88;;;4.55;100.00
62948;BME280;51940;52.126;-0.994;2023-02-23T02:49:17;100570.30;;;4.56;100.00
62948;BME280;51940;52.126;-0.994;2023-02-23T02:51:54;100575.06;;;4.56;100.00
62948;BME280;51940;52.126;-0.994;2023-02-23T02:54:29;100574.17;;;4.56;100.00
62948;BME280;51940;52.126;-0.994;2023-02-23T02:56:59;100578.77;;;4.56;100.00
62948;BME280;51940;52.126;-0.994;2023-02-23T02:59:26;100584.08;;;4.55;100.00
62948;BME280;51940;52.126;-0.994;2023-02-23T03:02:20;100579.84;;;4.56;100.00
62948;BME280;51940;52.126;-0.994;2023-02-23T03:05:17;100579.84;;;4.56;100.00
62948;BME280;51940;52.126;-0.994;2023-02-23T03:08:09;100580.71;;;4.54;100.00
62948;BME280;51940;52.126;-0.994;2023-02-23T03:25:57;100588.98;;;4.46;100.00
62948;BME280;51940;52.126;-0.994;2023-02-23T03:32:06;100587.55;;;4.44;100.00
62948;BME280;51940;52.126;-0.994;2023-02-23T03:37:55;100590.02;;;4.42;100.00
62948;BME280;51940;52.126;-0.994;2023-02-23T03:40:42;100590.89;;;4.42;100.00
62948;BME280;51940;52.126;-0.994;2023-02-23T03:43:33;100594.95;;;4.41;100.00
62948;BME280;51940;52.126;-0.994;2023-02-23T03:46:18;100590.90;;;4.41;100.00
62948;BME280;51940;52.126;-0.994;2023-02-23T03:49:06;100600.08;;;4.41;100.00
62948;BME280;51940;52.126;-0.994;2023-02-23T03:51:57;100601.67;;;4.41;100.00
62948;BME280;51940;52.126;-0.994;2023-02-23T03:54:47;100604.84;;;4.41;100.00
62948;BME280;51940;52.126;-0.994;2023-02-23T03:57:34;100613.14;;;4.40;100.00
62948;BME280;51940;52.126;-0.994;2023-02-23T04:00:27;100612.63;;;4.38;100.00
62948;BME280;51940;52.126;-0.994;2023-02-23T04:03:15;100617.02;;;4.36;100.00
62948;BME280;51940;52.126;-0.994;2023-02-23T04:06:02;100617.34;;;4.33;100.00
62948;BME280;51940;52.126;-0.994;2023-02-23T04:08:49;100621.23;;;4.31;100.00
62948;BME280;51940;52.126;-0.994;2023-02-23T04:11:46;100627.58;;;4.30;100.00
62948;BME280;51940;52.126;-0.994;2023-02-23T04:14:57;100626.17;;;4.28;100.00
62948;BME280;51940;52.126;-0.994;2023-02-23T04:17:27;100630.05;;;4.29;100.00
62948;BME280;51940;52.126;-0.994;2023-02-23T04:19:53;100630.41;;;4.29;100.00
62948;BME280;51940;52.126;-0.994;2023-02-23T04:22:19;100629.35;;;4.30;100.00
62948;BME280;51940;52.126;-0.994;2023-02-23T04:24:45;100628.11;;;4.32;100.00
62948;BME280;51940;52.126;-0.994;2023-02-23T04:27:12;100631.64;;;4.34;100.00
62948;BME280;51940;52.126;-0.994;2023-02-23T04:29:38;100632.00;;;4.35;100.00
62948;BME280;51940;52.126;-0.994;2023-02-23T04:32:05;100633.45;;;4.37;100.00
62948;BME280;51940;52.126;-0.994;2023-02-23T04:34:31;100638.22;;;4.38;100.00
62948;BME280;51940;52.126;-0.994;2023-02-23T04:36:56;100640.87;;;4.39;100.00
62948;BME280;51940;52.126;-0.994;2023-02-23T04:39:21;100640.33;;;4.40;100.00
62948;BME280;51940;52.126;-0.994;2023-02-23T04:41:47;100642.46;;;4.39;100.00
62948;BME280;51940;52.126;-0.994;2023-02-23T04:44:15;100644.76;;;4.39;100.00
62948;BME280;51940;52.126;-0.994;2023-02-23T04:46:40;100646.88;;;4.40;100.00
62948;BME280;51940;52.126;-0.994;2023-02-23T04:49:06;100648.64;;;4.41;100.00
62948;BME280;51940;52.126;-0.994;2023-02-23T04:51:31;100649.88;;;4.42;100.00
62948;BME280;51940;52.126;-0.994;2023-02-23T04:53:58;100653.09;;;4.44;100.00
62948;BME280;51940;52.126;-0.994;2023-02-23T04:56:24;100654.86;;;4.46;100.00
62948;BME280;51940;52.126;-0.994;2023-02-23T04:58:50;100654.34;;;4.47;100.00
62948;BME280;51940;52.126;-0.994;2023-02-23T05:01:15;100658.05;;;4.49;100.00
62948;BME280;51940;52.126;-0.994;2023-02-23T05:03:41;100661.05;;;4.51;100.00
62948;BME280;51940;52.126;-0.994;2023-02-23T05:06:06;100663.88;;;4.52;100.00
62948;BME280;51940;52.126;-0.994;2023-02-23T05:08:32;100667.27;;;4.53;100.00
62948;BME280;51940;52.126;-0.994;2023-02-23T05:10:57;100665.67;;;4.54;100.00
62948;BME280;51940;52.126;-0.994;2023-02-23T05:13:22;100664.44;;;4.54;100.00
62948;BME280;51940;52.126;-0.994;2023-02-23T05:15:48;100674.86;;;4.56;100.00
62948;BME280;51940;52.126;-0.994;2023-02-23T05:18:13;100675.04;;;4.56;100.00
62948;BME280;51940;52.126;-0.994;2023-02-23T05:20:41;100675.74;;;4.57;100.00
62948;BME280;51940;52.126;-0.994;2023-02-23T05:23:09;100676.10;;;4.58;100.00
62948;BME280;51940;52.126;-0.994;2023-02-23T05:25:37;100675.58;;;4.58;100.00
62948;BME280;51940;52.126;-0.994;2023-02-23T05:28:03;100680.52;;;4.58;100.00
62948;BME280;51940;52.126;-0.994;2023-02-23T05:30:29;100676.27;;;4.59;100.00
62948;BME280;51940;52.126;-0.994;2023-02-23T05:32:54;100681.58;;;4.60;100.00
62948;BME280;51940;52.126;-0.994;2023-02-23T05:35:20;100683.89;;;4.62;100.00
62948;BME280;51940;52.126;-0.994;2023-02-23T05:37:45;100690.78;;;4.62;100.00
62948;BME280;51940;52.126;-0.994;2023-02-23T05:40:11;100693.45;;;4.62;100.00
62948;BME280;51940;52.126;-0.994;2023-02-23T05:42:36;100696.80;;;4.63;100.00
62948;BME280;51940;52.126;-0.994;2023-02-23T05:45:02;100694.86;;;4.64;100.00
62948;BME280;51940;52.126;-0.994;2023-02-23T05:47:30;100700.34;;;4.65;100.00
62948;BME280;51940;52.126;-0.994;2023-02-23T05:49:55;100702.98;;;4.66;100.00
62948;BME280;51940;52.126;-0.994;2023-02-23T05:52:21;100706.17;;;4.66;100.00
62948;BME280;51940;52.126;-0.994;2023-02-23T05:54:47;100704.94;;;4.67;100.00
62948;BME280;51940;52.126;-0.994;2023-02-23T05:57:12;100708.11;;;4.67;100.00
62948;BME280;51940;52.126;-0.994;2023-02-23T05:59:38;100712.89;;;4.67;100.00
62948;BME280;51940;52.126;-0.994;2023-02-23T06:02:03;100716.77;;;4.66;100.00
62948;BME280;51940;52.126;-0.994;2023-02-23T06:04:31;100714.13;;;4.64;100.00
62948;BME280;51940;52.126;-0.994;2023-02-23T06:06:56;100716.74;;;4.61;100.00
62948;BME280;51940;52.126;-0.994;2023-02-23T06:09:23;100717.42;;;4.58;100.00
62948;BME280;51940;52.126;-0.994;2023-02-23T06:11:48;100715.14;;;4.56;100.00
62948;BME280;51940;52.126;-0.994;2023-02-23T06:14:14;100718.14;;;4.55;100.00
62948;BME280;51940;52.126;-0.994;2023-02-23T06:16:40;100714.42;;;4.54;100.00
62948;BME280;51940;52.126;-0.994;2023-02-23T06:19:10;100718.13;;;4.54;100.00
62948;BME280;51940;52.126;-0.994;2023-02-23T06:21:35;100723.27;;;4.55;100.00
62948;BME280;51940;52.126;-0.994;2023-02-23T06:24:01;100736.86;;;4.55;100.00
62948;BME280;51940;52.126;-0.994;2023-02-23T06:26:27;100746.04;;;4.55;100.00
62948;BME280;51940;52.126;-0.994;2023-02-23T06:28:53;100750.11;;;4.55;100.00
62948;BME280;51940;52.126;-0.994;2023-02-23T06:31:19;100749.58;;;4.56;100.00
62948;BME280;51940;52.126;-0.994;2023-02-23T06:33:44;100752.58;;;4.57;100.00
62948;BME280;51940;52.126;-0.994;2023-02-23T06:36:10;100750.11;;;4.58;100.00
62948;BME280;51940;52.126;-0.994;2023-02-23T06:38:35;100756.29;;;4.59;100.00
62948;BME280;51940;52.126;-0.994;2023-02-23T06:41:09;100761.59;;;4.59;100.00
62948;BME280;51940;52.126;-0.994;2023-02-23T06:43:35;100760.71;;;4.60;100.00
62948;BME280;51940;52.126;-0.994;2023-02-23T06:46:00;100762.48;;;4.60;100.00
62948;BME280;51940;52.126;-0.994;2023-02-23T06:48:26;100771.31;;;4.59;100.00
62948;BME280;51940;52.126;-0.994;2023-02-23T06:50:51;100775.55;;;4.59;100.00
62948;BME280;51940;52.126;-0.994;2023-02-23T06:53:18;100781.55;;;4.59;100.00
62948;BME280;51940;52.126;-0.994;2023-02-23T06:55:44;100792.15;;;4.58;100.00
62948;BME280;51940;52.126;-0.994;2023-02-23T06:58:10;100787.39;;;4.57;100.00
62948;BME280;51940;52.126;-0.994;2023-02-23T07:00:35;100797.98;;;4.56;100.00
62948;BME280;51940;52.126;-0.994;2023-02-23T07:03:01;100798.15;;;4.56;100.00
62948;BME280;51940;52.126;-0.994;2023-02-23T07:05:27;100806.45;;;4.55;100.00
62948;BME280;51940;52.126;-0.994;2023-02-23T07:07:52;100816.88;;;4.55;100.00
62948;BME280;51940;52.126;-0.994;2023-02-23T07:10:18;100822.17;;;4.54;100.00
62948;BME280;51940;52.126;-0.994;2023-02-23T07:12:43;100824.83;;;4.54;100.00
62948;BME280;51940;52.126;-0.994;2023-02-23T07:15:09;100832.06;;;4.54;100.00
62948;BME280;51940;52.126;-0.994;2023-02-23T07:17:35;100844.61;;;4.54;100.00
62948;BME280;51940;52.126;-0.994;2023-02-23T07:20:01;100852.55;;;4.54;100.00
62948;BME280;51940;52.126;-0.994;2023-02-23T07:22:26;100858.17;;;4.52;100.00
62948;BME280;51940;52.126;-0.994;2023-02-23T07:24:55;100860.48;;;4.53;100.00
62948;BME280;51940;52.126;-0.994;2023-02-23T07:27:20;100860.84;;;4.53;100.00
62948;BME280;51940;52.126;-0.994;2023-02-23T07:29:46;100863.66;;;4.53;100.00
62948;BME280;51940;52.126;-0.994;2023-02-23T07:32:11;100867.39;;;4.53;100.00
62948;BME280;51940;52.126;-0.994;2023-02-23T07:34:37;100877.98;;;4.53;100.00
62948;BME280;51940;52.126;-0.994;2023-02-23T07:37:04;100871.80;;;4.54;100.00
62948;BME280;51940;52.126;-0.994;2023-02-23T07:39:30;100873.22;;;4.54;100.00
62948;BME280;51940;52.126;-0.994;2023-02-23T07:41:56;100878.48;;;4.53;100.00
62948;BME280;51940;52.126;-0.994;2023-02-23T07:44:21;100879.17;;;4.51;100.00
62948;BME280;51940;52.126;-0.994;2023-02-23T07:46:47;100880.23;;;4.50;100.00
62948;BME280;51940;52.126;-0.994;2023-02-23T07:49:13;100887.64;;;4.48;100.00
62948;BME280;51940;52.126;-0.994;2023-02-23T07:51:39;100888.00;;;4.49;100.00
62948;BME280;51940;52.126;-0.994;2023-02-23T07:54:05;100898.24;;;4.49;100.00
62948;BME280;51940;52.126;-0.994;2023-02-23T07:56:31;100901.24;;;4.50;100.00
62948;BME280;51940;52.126;-0.994;2023-02-23T07:58:57;100901.43;;;4.50;100.00
62948;BME280;51940;52.126;-0.994;2023-02-23T08:01:22;100901.97;;;4.51;100.00
62948;BME280;51940;52.126;-0.994;2023-02-23T08:03:48;100909.95;;;4.54;100.00
62948;BME280;51940;52.126;-0.994;2023-02-23T08:06:18;100913.14;;;4.56;100.00
62948;BME280;51940;52.126;-0.994;2023-02-23T08:08:44;100914.21;;;4.58;100.00
62948;BME280;51940;52.126;-0.994;2023-02-23T08:11:10;100917.41;;;4.59;100.00
62948;BME280;51940;52.126;-0.994;2023-02-23T08:13:36;100917.92;;;4.57;100.00
62948;BME280;51940;52.126;-0.994;2023-02-23T08:16:03;100917.39;;;4.57;100.00
62948;BME280;51940;52.126;-0.994;2023-02-23T08:18:28;100915.62;;;4.56;100.00
62948;BME280;51940;52.126;-0.994;2023-02-23T08:21:01;100913.49;;;4.56;100.00
62948;BME280;51940;52.126;-0.994;2023-02-23T08:23:33;100917.91;;;4.55;100.00
62948;BME280;51940;52.126;-0.994;2023-02-23T08:26:00;100917.90;;;4.53;100.00
62948;BME280;51940;52.126;-0.994;2023-02-23T08:28:26;100927.80;;;4.55;100.00
62948;BME280;51940;52.126;-0.994;2023-02-23T08:30:52;100933.64;;;4.56;100.00
62948;BME280;51940;52.126;-0.994;2023-02-23T08:33:17;100929.94;;;4.57;100.00
62948;BME280;51940;52.126;-0.994;2023-02-23T08:35:43;100932.77;;;4.59;100.00
62948;BME280;51940;52.126;-0.994;2023-02-23T08:38:09;100935.80;;;4.62;100.00
62948;BME280;51940;52.126;-0.994;2023-02-23T08:40:34;100939.73;;;4.65;100.00
62948;BME280;51940;52.126;-0.994;2023-02-23T08:43:00;100938.14;;;4.68;100.00
62948;BME280;51940;52.126;-0.994;2023-02-23T08:45:25;100943.10;;;4.70;100.00
62948;BME280;51940;52.126;-0.994;2023-02-23T08:47:54;100945.80;;;4.71;100.00
62948;BME280;51940;52.126;-0.994;2023-02-23T08:50:20;100952.16;;;4.73;100.00
62948;BME280;51940;52.126;-0.994;2023-02-23T08:52:46;100950.06;;;4.76;100.00
62948;BME280;51940;52.126;-0.994;2023-02-23T08:55:11;100949.06;;;4.82;100.00
62948;BME280;51940;52.126;-0.994;2023-02-23T08:57:38;100946.09;;;4.86;100.00
62948;BME280;51940;52.126;-0.994;2023-02-23T09:00:04;100941.70;;;4.89;100.00
62948;BME280;51940;52.126;-0.994;2023-02-23T09:02:39;100942.77;;;4.91;100.00
62948;BME280;51940;52.126;-0.994;2023-02-23T09:05:06;100948.59;;;4.91;100.00
62948;BME280;51940;52.126;-0.994;2023-02-23T09:07:32;100948.61;;;4.94;100.00
62948;BME280;51940;52.126;-0.994;2023-02-23T09:09:57;100956.80;;;4.97;100.00
62948;BME280;51940;52.126;-0.994;2023-02-23T09:12:23;100959.27;;;4.98;100.00
62948;BME280;51940;52.126;-0.994;2023-02-23T09:14:49;100960.34;;;5.00;100.00
62948;BME280;51940;52.126;-0.994;2023-02-23T09:17:17;100955.73;;;5.00;100.00
62948;BME280;51940;52.126;-0.994;2023-02-23T09:19:42;100953.96;;;5.01;100.00
62948;BME280;51940;52.126;-0.994;2023-02-23T09:22:08;100947.78;;;5.02;100.00
62948;BME280;51940;52.126;-0.994;2023-02-23T09:24:33;100946.94;;;5.05;100.00
62948;BME280;51940;52.126;-0.994;2023-02-23T09:26:59;100953.86;;;5.10;100.00
62948;BME280;51940;52.126;-0.994;2023-02-23T09:29:25;100955.33;;;5.14;100.00
62948;BME280;51940;52.126;-0.994;2023-02-23T09:31:50;100966.83;;;5.18;100.00
62948;BME280;51940;52.126;-0.994;2023-02-23T09:34:18;100965.25;;;5.20;100.00
62948;BME280;51940;52.126;-0.994;2023-02-23T09:36:43;100961.41;;;5.26;100.00
62948;BME280;51940;52.126;-0.994;2023-02-23T09:39:09;100964.45;;;5.32;100.00
62948;BME280;51940;52.126;-0.994;2023-02-23T09:47:43;100974.77;;;5.42;100.00
62948;BME280;51940;52.126;-0.994;2023-02-23T09:50:29;100979.40;;;5.46;100.00
62948;BME280;51940;52.126;-0.994;2023-02-23T09:53:17;100979.95;;;5.51;100.00
62948;BME280;51940;52.126;-0.994;2023-02-23T09:55:47;100990.45;;;5.60;100.00
62948;BME280;51940;52.126;-0.994;2023-02-23T09:58:21;100987.27;;;5.62;100.00
62948;BME280;51940;52.126;-0.994;2023-02-23T10:00:59;100988.01;;;5.67;100.00
62948;BME280;51940;52.126;-0.994;2023-02-23T10:03:33;100980.77;;;5.72;100.00
62948;BME280;51940;52.126;-0.994;2023-02-23T10:06:05;100981.33;;;5.78;100.00
62948;BME280;51940;52.126;-0.994;2023-02-23T10:09:02;100988.09;;;5.82;100.00
62948;BME280;51940;52.126;-0.994;2023-02-23T10:11:44;100988.45;;;5.85;100.00
62948;BME280;51940;52.126;-0.994;2023-02-23T10:19:35;100997.66;;;5.85;100.00
62948;BME280;51940;52.126;-0.994;2023-02-23T10:22:09;100990.94;;;5.88;100.00
62948;BME280;51940;52.126;-0.994;2023-02-23T10:24:41;100991.36;;;5.94;100.00
62948;BME280;51940;52.126;-0.994;2023-02-23T10:27:19;100996.17;;;6.02;100.00
62948;BME280;51940;52.126;-0.994;2023-02-23T10:29:48;100990.33;;;6.04;100.00
62948;BME280;51940;52.126;-0.994;2023-02-23T10:32:26;100999.22;;;6.11;100.00
62948;BME280;51940;52.126;-0.994;2023-02-23T10:34:56;100999.27;;;6.17;100.00
62948;BME280;51940;52.126;-0.994;2023-02-23T10:37:23;100999.27;;;6.24;100.00
62948;BME280;51940;52.126;-0.994;2023-02-23T10:39:50;100997.35;;;6.33;100.00
62948;BME280;51940;52.126;-0.994;2023-02-23T10:42:26;100998.42;;;6.37;100.00
62948;BME280;51940;52.126;-0.994;2023-02-23T10:44:57;100997.17;;;6.39;100.00
62948;BME280;51940;52.126;-0.994;2023-02-23T10:47:28;101004.46;;;6.42;100.00
62948;BME280;51940;52.126;-0.994;2023-02-23T10:49:55;101008.38;;;6.43;100.00
62948;BME280;51940;52.126;-0.994;2023-02-23T10:52:28;101008.19;;;6.43;100.00
62948;BME280;51940;52.126;-0.994;2023-02-23T10:54:55;101006.77;;;6.44;100.00
62948;BME280;51940;52.126;-0.994;2023-02-23T10:57:32;101004.29;;;6.46;100.00
62948;BME280;51940;52.126;-0.994;2023-02-23T11:02:31;101004.85;;;6.57;100.00
62948;BME280;51940;52.126;-0.994;2023-02-23T11:04:59;101002.73;;;6.71;100.00
62948;BME280;51940;52.126;-0.994;2023-02-23T11:07:30;100996.73;;;6.82;100.00
62948;BME280;51940;52.126;-0.994;2023-02-23T11:10:34;100991.77;;;6.93;100.00
62948;BME280;51940;52.126;-0.994;2023-02-23T11:12:59;100998.86;;;7.08;100.00
62948;BME280;51940;52.126;-0.994;2023-02-23T11:15:32;100999.58;;;7.19;100.00
62948;BME280;51940;52.126;-0.994;2023-02-23T11:18:00;101009.32;;;7.25;100.00
62948;BME280;51940;52.126;-0.994;2023-02-23T11:20:32;101008.79;;;7.31;100.00
62948;BME280;51940;52.126;-0.994;2023-02-23T11:23:08;101012.52;;;7.36;100.00
62948;BME280;51940;52.126;-0.994;2023-02-23T11:25:34;101011.98;;;7.41;100.00
62948;BME280;51940;52.126;-0.994;2023-02-23T11:28:00;101014.63;;;7.43;100.00
62948;BME280;51940;52.126;-0.994;2023-02-23T11:30:36;101017.30;;;7.43;100.00
62948;BME280;51940;52.126;-0.994;2023-02-23T11:33:07;101010.91;;;7.38;100.00
62948;BME280;51940;52.126;-0.994;2023-02-23T11:35:39;101011.44;;;7.32;100.00
62948;BME280;51940;52.126;-0.994;2023-02-23T11:38:28;101015.54;;;7.30;100.00
62948;BME280;51940;52.126;-0.994;2023-02-23T11:41:06;101018.38;;;7.22;100.00
62948;BME280;51940;52.126;-0.994;2023-02-23T11:43:47;101015.19;;;7.18;100.00
62948;BME280;51940;52.126;-0.994;2023-02-23T11:46:13;101018.55;;;7.15;100.00
62948;BME280;51940;52.126;-0.994;2023-02-23T11:51:34;101015.20;;;7.11;100.00
62948;BME280;51940;52.126;-0.994;2023-02-23T11:54:02;101014.66;;;7.11;100.00
62948;BME280;51940;52.126;-0.994;2023-02-23T11:56:30;101015.89;;;7.07;100.00
62948;BME280;51940;52.126;-0.994;2023-02-23T11:59:06;101017.66;;;7.04;100.00
62948;BME280;51940;52.126;-0.994;2023-02-23T12:01:42;101024.76;;;7.01;100.00
62948;BME280;51940;52.126;-0.994;2023-02-23T12:09:58;101019.61;;;6.97;100.00
62948;BME280;51940;52.126;-0.994;2023-02-23T12:12:27;101024.94;;;6.95;100.00
62948;BME280;51940;52.126;-0.994;2023-02-23T12:15:16;101025.46;;;6.91;100.00
62948;BME280;51940;52.126;-0.994;2023-02-23T12:17:48;101028.84;;;6.87;100.00
62948;BME280;51940;52.126;-0.994;2023-02-23T12:20:20;101020.67;;;6.86;100.00
62948;BME280;51940;52.126;-0.994;2023-02-23T12:22:51;101016.23;;;6.88;100.00
62948;BME280;51940;52.126;-0.994;2023-02-23T12:25:29;101023.15;;;6.90;100.00
62948;BME280;51940;52.126;-0.994;2023-02-23T12:28:03;101023.15;;;6.88;100.00
62948;BME280;51940;52.126;-0.994;2023-02-23T12:30:52;101022.98;;;6.89;100.00
62948;BME280;51940;52.126;-0.994;2023-02-23T12:35:55;101024.39;;;6.86;100.00
62948;BME280;51940;52.126;-0.994;2023-02-23T12:41:12;101027.77;;;6.92;100.00
62948;BME280;51940;52.126;-0.994;2023-02-23T12:43:49;101016.95;;;6.97;100.00
62948;BME280;51940;52.126;-0.994;2023-02-23T12:46:20;101017.13;;;7.05;100.00
62948;BME280;51940;52.126;-0.994;2023-02-23T12:49:12;101014.83;;;7.16;100.00
62948;BME280;51940;52.126;-0.994;2023-02-23T12:51:55;101002.05;;;7.25;100.00
62948;BME280;51940;52.126;-0.994;2023-02-23T12:54:23;101009.48;;;7.32;100.00
62948;BME280;51940;52.126;-0.994;2023-02-23T13:02:02;100998.15;;;7.34;100.00
62948;BME280;51940;52.126;-0.994;2023-02-23T13:07:41;100995.83;;;7.38;100.00
62948;BME280;51940;52.126;-0.994;2023-02-23T13:13:25;100996.55;;;7.39;100.00
62948;BME280;51940;52.126;-0.994;2023-02-23T13:24:16;100992.46;;;7.34;100.00
62948;BME280;51940;52.126;-0.994;2023-02-23T13:26:58;100996.54;;;7.34;100.00
62948;BME280;51940;52.126;-0.994;2023-02-23T13:29:54;100991.76;;;7.37;100.00
62948;BME280;51940;52.126;-0.994;2023-02-23T13:32:25;100990.86;;;7.40;100.00
62948;BME280;51940;52.126;-0.994;2023-02-23T13:48:41;100993.19;;;7.18;100.00
62948;BME280;51940;52.126;-0.994;2023-02-23T13:51:13;100994.26;;;7.18;100.00
62948;BME280;51940;52.126;-0.994;2023-02-23T13:56:43;100997.98;;;7.15;100.00
62948;BME280;51940;52.126;-0.994;2023-02-23T13:59:16;100996.02;;;7.15;100.00
62948;BME280;51940;52.126;-0.994;2023-02-23T14:01:44;100994.77;;;7.16;100.00
62948;BME280;51940;52.126;-0.994;2023-02-23T14:04:15;101003.11;;;7.18;100.00
62948;BME280;51940;52.126;-0.994;2023-02-23T14:07:32;101002.05;;;7.17;100.00
62948;BME280;51940;52.126;-0.994;2023-02-23T14:09:48;100997.27;;;7.20;100.00
62948;BME280;51940;52.126;-0.994;2023-02-23T14:12:24;100998.16;;;7.22;100.00
62948;BME280;51940;52.126;-0.994;2023-02-23T14:14:50;100994.43;;;7.22;100.00
62948;BME280;51940;52.126;-0.994;2023-02-23T14:25:49;100999.92;;;7.23;100.00
62948;BME280;51940;52.126;-0.994;2023-02-23T14:33:56;101004.71;;;7.23;100.00
62948;BME280;51940;52.126;-0.994;2023-02-23T14:38:57;100999.23;;;7.21;100.00
62948;BME280;51940;52.126;-0.994;2023-02-23T14:41:30;101001.52;;;7.20;100.00
62948;BME280;51940;52.126;-0.994;2023-02-23T14:43:59;101007.04;;;7.19;100.00
62948;BME280;51940;52.126;-0.994;2023-02-23T14:46:31;101009.70;;;7.19;100.00
62948;BME280;51940;52.126;-0.994;2023-02-23T14:49:00;101013.95;;;7.20;100.00
62948;BME280;51940;52.126;-0.994;2023-02-23T14:51:40;101016.42;;;7.17;100.00
62948;BME280;51940;52.126;-0.994;2023-02-23T14:54:21;101013.41;;;7.15;100.00
62948;BME280;51940;52.126;-0.994;2023-02-23T14:56:50;101015.17;;;7.15;100.00